createdAt,value
2018-04-19T00:01:40.892Z,26.07
2018-04-19T00:04:07.040Z,26.77
2018-04-19T00:06:33.159Z,25.03
2018-04-19T00:09:00.108Z,24.80
2018-04-19T00:11:26.959Z,25.30
2018-04-19T00:13:53.835Z,25.87
2018-04-19T00:16:20.701Z,25.13
2018-04-19T00:18:46.783Z,23.70
2018-04-19T00:21:12.920Z,25.00
2018-04-19T00:23:39.172Z,24.10
2018-04-19T00:26:05.382Z,26.40
2018-04-19T00:28:31.512Z,25.93
2018-04-19T00:30:57.606Z,25.83
2018-04-19T00:33:23.683Z,24.97
2018-04-19T00:35:49.799Z,28.90
2018-04-19T00:38:15.910Z,30.80
2018-04-19T00:40:41.983Z,25.70
2018-04-19T00:43:08.107Z,24.77
2018-04-19T00:45:34.915Z,23.60
2018-04-19T00:48:01.001Z,24.40
2018-04-19T00:50:27.875Z,26.47
2018-04-19T00:53:06.230Z,24.87
2018-04-19T00:55:32.336Z,25.53
2018-04-19T00:57:58.409Z,23.00
2018-04-19T01:00:24.494Z,24.73
2018-04-19T01:02:51.339Z,24.80
2018-04-19T01:05:18.159Z,24.00
2018-04-19T01:07:44.235Z,23.93
2018-04-19T01:10:11.075Z,24.90
2018-04-19T01:12:37.173Z,22.70
2018-04-19T01:15:03.249Z,24.27
2018-04-19T01:17:29.368Z,26.17
2018-04-19T01:19:55.445Z,23.50
2018-04-19T01:22:22.275Z,24.40
2018-04-19T01:24:48.397Z,24.60
2018-04-19T01:27:14.527Z,25.07
2018-04-19T01:29:40.599Z,24.10
2018-04-19T01:32:07.459Z,25.97
2018-04-19T01:34:34.303Z,24.33
2018-04-19T01:37:00.412Z,24.03
2018-04-19T01:39:26.566Z,25.53
2018-04-19T01:41:52.661Z,25.53
2018-04-19T01:44:18.752Z,22.80
2018-04-19T01:46:45.617Z,23.80
2018-04-19T01:49:12.476Z,23.87
2018-04-19T01:51:39.305Z,25.63
2018-04-19T01:54:05.416Z,25.40
2018-04-19T01:56:31.499Z,25.30
2018-04-19T01:58:58.321Z,26.20
2018-04-19T02:01:24.411Z,24.93
2018-04-19T02:03:50.488Z,25.40
2018-04-19T02:06:16.617Z,24.83
2018-04-19T02:08:42.731Z,26.60
2018-04-19T02:11:08.824Z,25.27
2018-04-19T02:13:34.921Z,25.60
2018-04-19T02:16:01.049Z,24.60
2018-04-19T02:18:27.152Z,23.13
2018-04-19T02:20:53.295Z,21.90
2018-04-19T02:23:20.172Z,23.97
2018-04-19T02:25:46.263Z,23.77
2018-04-19T02:28:12.347Z,23.37
2018-04-19T02:30:53.426Z,24.63
2018-04-19T02:33:20.323Z,24.83
2018-04-19T02:35:46.410Z,24.70
2018-04-19T02:38:13.259Z,24.93
2018-04-19T02:40:39.383Z,24.40
2018-04-19T02:43:05.458Z,25.47
2018-04-19T02:45:31.554Z,24.73
2018-04-19T02:47:57.639Z,25.00
2018-04-19T02:50:23.708Z,24.83
2018-04-19T02:52:49.808Z,26.53
2018-04-19T02:55:15.878Z,24.83
2018-04-19T02:57:41.997Z,25.03
2018-04-19T03:00:08.100Z,25.50
2018-04-19T03:02:34.920Z,25.77
2018-04-19T03:05:01.048Z,26.20
2018-04-19T03:07:27.163Z,24.00
2018-04-19T03:09:53.239Z,25.77
2018-04-19T03:12:19.323Z,25.50
2018-04-19T03:14:45.429Z,25.20
2018-04-19T03:17:11.508Z,27.97
2018-04-19T03:19:37.586Z,29.27
2018-04-19T03:22:03.686Z,27.77
2018-04-19T03:24:29.762Z,28.33
2018-04-19T03:26:55.848Z,27.53
2018-04-19T03:29:21.964Z,28.00
2018-04-19T03:31:48.792Z,25.77
2018-04-19T03:34:14.898Z,26.97
2018-04-19T03:36:41.010Z,25.67
2018-04-19T03:39:07.834Z,28.80
2018-04-19T03:41:33.963Z,28.57
2018-04-19T03:44:00.102Z,27.43
2018-04-19T03:46:26.259Z,27.90
2018-04-19T03:48:53.118Z,28.43
2018-04-19T03:51:19.193Z,28.17
2018-04-19T03:53:45.451Z,28.73
2018-04-19T03:56:11.567Z,27.23
2018-04-19T03:58:37.649Z,26.80
2018-04-19T04:01:03.816Z,27.07
2018-04-19T04:03:30.079Z,26.90
2018-04-19T04:05:56.222Z,27.10
2018-04-19T04:08:22.390Z,25.87
2018-04-19T04:10:48.472Z,27.97
2018-04-19T04:13:15.375Z,28.47
2018-04-19T04:15:41.454Z,27.97
2018-04-19T04:18:20.691Z,27.63
2018-04-19T04:20:59.091Z,27.23
2018-04-19T04:23:38.251Z,27.87
2018-04-19T04:26:04.322Z,28.43
2018-04-19T04:28:31.162Z,28.67
2018-04-19T04:30:57.260Z,27.80
2018-04-19T04:33:23.327Z,28.57
2018-04-19T04:35:49.422Z,28.30
2018-04-19T04:38:15.513Z,29.47
2018-04-19T04:40:41.592Z,28.70
2018-04-19T04:43:07.721Z,29.60
2018-04-19T04:45:33.835Z,28.93
2018-04-19T04:47:59.933Z,28.73
2018-04-19T04:50:26.010Z,29.73
2018-04-19T04:52:52.074Z,28.93
2018-04-19T04:55:18.174Z,29.80
2018-04-19T04:57:44.311Z,29.90
2018-04-19T05:00:10.429Z,29.50
2018-04-19T05:02:36.618Z,29.13
2018-04-19T05:05:03.468Z,28.57
2018-04-19T05:07:30.346Z,29.83
2018-04-19T05:09:56.425Z,30.13
2018-04-19T05:12:22.555Z,30.07
2018-04-19T05:14:48.637Z,32.40
2018-04-19T05:17:15.471Z,33.93
2018-04-19T05:19:41.586Z,32.03
2018-04-19T05:22:07.698Z,30.07
2018-04-19T05:24:33.790Z,29.70
2018-04-19T05:26:59.902Z,30.43
2018-04-19T05:29:26.040Z,30.60
2018-04-19T05:31:52.193Z,29.40
2018-04-19T05:34:18.364Z,27.43
2018-04-19T05:36:45.191Z,27.23
2018-04-19T05:39:11.293Z,28.10
2018-04-19T05:41:37.367Z,29.30
2018-04-19T05:44:03.564Z,26.43
2018-04-19T05:46:29.718Z,25.87
2018-04-19T05:48:55.842Z,25.30
2018-04-19T05:51:22.006Z,26.30
2018-04-19T05:53:48.106Z,26.80
2018-04-19T05:56:14.278Z,25.60
2018-04-19T05:58:40.442Z,27.63
2018-04-19T06:01:06.644Z,29.20
2018-04-19T06:03:32.795Z,26.10
2018-04-19T06:05:58.901Z,25.87
2018-04-19T06:08:25.055Z,25.30
2018-04-19T06:10:51.211Z,27.77
2018-04-19T06:13:17.344Z,35.83
2018-04-19T06:15:43.466Z,24.17
2018-04-19T06:18:10.548Z,23.03
2018-04-19T06:20:36.677Z,28.30
2018-04-19T06:23:02.816Z,22.60
2018-04-19T06:25:30.707Z,36.33
2018-04-19T06:27:58.600Z,25.77
2018-04-19T06:30:26.643Z,26.10
2018-04-19T06:32:54.570Z,22.73
2018-04-19T06:35:22.617Z,20.40
2018-04-19T06:37:50.533Z,26.87
2018-04-19T06:40:18.398Z,33.33
2018-04-19T06:42:46.378Z,18.20
2018-04-19T06:45:14.256Z,25.07
2018-04-19T06:47:42.091Z,14.97
2018-04-19T06:50:09.998Z,14.00
2018-04-19T06:52:38.042Z,16.73
2018-04-19T06:55:05.966Z,17.37
2018-04-19T06:57:33.851Z,16.70
2018-04-19T07:00:01.720Z,22.00
2018-04-19T07:02:29.650Z,17.03
2018-04-19T07:04:57.491Z,17.90
2018-04-19T07:07:25.372Z,14.93
2018-04-19T07:09:55.431Z,14.43
2018-04-19T07:12:23.374Z,17.10
2018-04-19T07:14:51.262Z,18.00
2018-04-19T07:17:19.135Z,15.83
2018-04-19T07:19:47.786Z,20.57
2018-04-19T07:22:15.734Z,16.13
2018-04-19T07:24:43.604Z,15.57
2018-04-19T07:27:11.478Z,15.90
2018-04-19T07:29:39.345Z,16.17
2018-04-19T07:32:07.205Z,13.30
2018-04-19T07:34:35.150Z,13.37
2018-04-19T07:37:03.007Z,15.23
2018-04-19T07:39:31.363Z,13.90
2018-04-19T07:41:59.286Z,12.03
2018-04-19T07:44:27.151Z,12.90
2018-04-19T07:46:54.981Z,13.40
2018-04-19T07:49:22.849Z,16.20
2018-04-19T07:51:50.697Z,22.60
2018-04-19T07:54:18.526Z,16.30
2018-04-19T07:56:46.381Z,13.40
2018-04-19T07:59:14.209Z,12.37
2018-04-19T08:01:42.029Z,11.40
2018-04-19T08:04:09.889Z,12.53
2018-04-19T08:06:37.736Z,12.83
2018-04-19T08:09:06.609Z,11.70
2018-04-19T08:11:34.485Z,11.40
2018-04-19T08:14:02.334Z,11.37
2018-04-19T08:16:30.179Z,11.50
2018-04-19T08:18:58.053Z,16.93
2018-04-19T08:21:25.918Z,14.00
2018-04-19T08:23:53.771Z,10.30
2018-04-19T08:26:21.941Z,11.93
2018-04-19T08:28:49.789Z,9.47
2018-04-19T08:31:17.656Z,11.73
2018-04-19T08:33:45.526Z,10.60
2018-04-19T08:36:13.398Z,10.67
2018-04-19T08:38:42.237Z,11.57
2018-04-19T08:41:12.963Z,19.20
2018-04-19T08:43:40.828Z,11.30
2018-04-19T08:46:10.869Z,10.37
2018-04-19T08:48:39.191Z,12.87
2018-04-19T08:51:08.358Z,12.27
2018-04-19T08:53:37.544Z,9.60
2018-04-19T08:56:05.563Z,8.60
2018-04-19T08:58:33.419Z,11.60
2018-04-19T09:01:05.404Z,10.03
2018-04-19T09:03:33.261Z,14.57
2018-04-19T09:06:03.366Z,9.17
2018-04-19T09:08:31.358Z,9.80
2018-04-19T09:10:59.212Z,9.57
2018-04-19T09:13:27.561Z,10.70
2018-04-19T09:15:59.167Z,7.70
2018-04-19T09:18:28.994Z,8.83
2018-04-19T09:20:57.874Z,12.97
2018-04-19T09:23:26.071Z,12.33
2018-04-19T09:25:53.956Z,8.23
2018-04-19T09:28:21.837Z,8.43
2018-04-19T09:30:49.712Z,10.23
2018-04-19T09:33:17.559Z,13.40
2018-04-19T09:35:45.431Z,7.77
2018-04-19T09:38:19.712Z,8.70
2018-04-19T09:40:50.074Z,7.90
2018-04-19T09:43:18.220Z,8.80
2018-04-19T09:45:47.366Z,9.03
2018-04-19T09:48:16.330Z,8.60
2018-04-19T09:50:44.353Z,13.50
2018-04-19T09:53:12.233Z,13.27
2018-04-19T09:55:40.078Z,8.30
2018-04-19T09:58:07.985Z,25.37
2018-04-19T10:00:42.237Z,8.17
2018-04-19T10:03:16.428Z,9.57
2018-04-19T10:05:46.256Z,7.40
2018-04-19T10:08:14.105Z,13.23
2018-04-19T10:10:41.973Z,8.33
2018-04-19T10:13:09.827Z,8.63
2018-04-19T10:15:37.721Z,8.90
2018-04-19T10:18:05.637Z,7.07
2018-04-19T10:20:33.503Z,7.83
2018-04-19T10:23:01.376Z,8.47
2018-04-19T10:25:29.217Z,12.07
2018-04-19T10:27:57.134Z,8.10
2018-04-19T10:30:24.977Z,8.07
2018-04-19T10:32:52.838Z,7.20
2018-04-19T10:35:20.693Z,8.43
2018-04-19T10:37:48.554Z,8.83
2018-04-19T10:40:16.410Z,8.23
2018-04-19T10:42:44.294Z,7.00
2018-04-19T10:45:12.141Z,8.80
2018-04-19T10:47:39.975Z,11.43
2018-04-19T10:50:07.850Z,9.97
2018-04-19T10:52:35.682Z,7.57
2018-04-19T10:55:03.506Z,6.73
2018-04-19T10:57:31.357Z,9.57
2018-04-19T10:59:59.277Z,6.47
2018-04-19T11:02:27.112Z,13.70
2018-04-19T11:04:54.981Z,8.50
2018-04-19T11:07:22.818Z,17.70
2018-04-19T11:09:50.645Z,18.53
2018-04-19T11:12:18.519Z,23.73
2018-04-19T11:14:46.353Z,7.17
2018-04-19T11:17:14.190Z,6.63
2018-04-19T11:19:42.081Z,7.20
2018-04-19T11:22:09.902Z,27.90
2018-04-19T11:24:37.808Z,18.10
2018-04-19T11:27:05.655Z,7.60
2018-04-19T11:29:33.490Z,8.07
2018-04-19T11:32:01.420Z,7.47
2018-04-19T11:34:29.249Z,6.73
2018-04-19T11:36:57.153Z,8.73
2018-04-19T11:39:25.045Z,7.70
2018-04-19T11:41:52.882Z,7.10
2018-04-19T11:44:20.770Z,6.87
2018-04-19T11:46:48.642Z,6.27
2018-04-19T11:49:16.798Z,5.97
2018-04-19T11:51:44.689Z,7.00
2018-04-19T11:54:12.531Z,7.20
2018-04-19T11:56:40.399Z,7.37
2018-04-19T11:59:08.301Z,9.87
2018-04-19T12:01:36.154Z,8.37
2018-04-19T12:04:04.028Z,10.60
2018-04-19T12:06:31.950Z,15.10
2018-04-19T12:08:59.847Z,7.37
2018-04-19T12:11:27.727Z,7.33
2018-04-19T12:13:55.614Z,7.67
2018-04-19T12:16:23.541Z,8.07
2018-04-19T12:18:51.421Z,17.30
2018-04-19T12:21:19.358Z,10.00
2018-04-19T12:23:47.303Z,8.20
2018-04-19T12:26:15.500Z,5.50
2018-04-19T12:28:43.400Z,4.93
2018-04-19T12:31:11.235Z,5.17
2018-04-19T12:33:39.097Z,10.40
2018-04-19T12:36:06.994Z,7.10
2018-04-19T12:38:34.862Z,6.70
2018-04-19T12:41:02.710Z,5.00
2018-04-19T12:43:30.635Z,6.37
2018-04-19T12:45:58.510Z,5.33
2018-04-19T12:48:26.342Z,6.50
2018-04-19T12:50:54.321Z,4.20
2018-04-19T12:53:22.265Z,8.83
2018-04-19T12:55:50.150Z,7.73
2018-04-19T12:58:18.020Z,10.47
2018-04-19T13:00:45.869Z,14.97
2018-04-19T13:03:13.717Z,10.27
2018-04-19T13:05:41.605Z,4.33
2018-04-19T13:08:09.454Z,5.90
2018-04-19T13:10:37.297Z,5.37
2018-04-19T13:13:05.182Z,4.53
2018-04-19T13:15:33.018Z,16.23
2018-04-19T13:18:00.871Z,5.60
2018-04-19T13:20:28.809Z,4.03
2018-04-19T13:22:56.646Z,4.03
2018-04-19T13:25:24.650Z,4.30
2018-04-19T13:27:52.582Z,3.40
2018-04-19T13:30:20.434Z,2.70
2018-04-19T13:32:48.274Z,2.80
2018-04-19T13:35:16.158Z,3.47
2018-04-19T13:37:43.998Z,2.03
2018-04-19T13:40:12.618Z,3.10
2018-04-19T13:42:40.546Z,3.40
2018-04-19T13:45:10.079Z,2.80
2018-04-19T13:47:37.930Z,5.37
2018-04-19T13:50:05.810Z,3.30
2018-04-19T13:52:33.661Z,3.20
2018-04-19T13:55:01.518Z,3.67
2018-04-19T13:57:29.410Z,3.27
2018-04-19T13:59:57.262Z,3.20
2018-04-19T14:02:25.175Z,3.80
2018-04-19T14:04:53.058Z,4.70
2018-04-19T14:07:20.921Z,3.90
2018-04-19T14:09:48.795Z,3.93
2018-04-19T14:12:16.666Z,5.60
2018-04-19T14:14:44.530Z,3.50
2018-04-19T14:17:12.401Z,4.70
2018-04-19T14:19:40.293Z,4.27
2018-04-19T14:22:08.145Z,3.70
2018-04-19T14:24:35.999Z,2.80
2018-04-19T14:27:03.883Z,2.60
2018-04-19T14:29:31.764Z,5.43
2018-04-19T14:31:59.598Z,3.13
2018-04-19T14:34:27.468Z,3.10
2018-04-19T14:36:55.318Z,6.87
2018-04-19T14:39:23.207Z,5.70
2018-04-19T14:41:51.131Z,5.40
2018-04-19T14:44:19.904Z,3.40
2018-04-19T14:46:47.756Z,8.60
2018-04-19T14:49:15.631Z,3.23
2018-04-19T14:51:43.492Z,3.60
2018-04-19T14:54:11.345Z,4.50
2018-04-19T14:56:39.230Z,5.10
2018-04-19T14:59:07.087Z,3.50
2018-04-19T15:01:34.948Z,5.17
2018-04-19T15:04:02.850Z,3.70
2018-04-19T15:06:30.689Z,4.13
2018-04-19T15:08:58.549Z,4.37
2018-04-19T15:11:26.461Z,4.93
2018-04-19T15:13:54.314Z,8.00
2018-04-19T15:16:22.150Z,4.53
2018-04-19T15:18:50.036Z,5.87
2018-04-19T15:21:17.985Z,7.60
2018-04-19T15:23:45.845Z,26.63
2018-04-19T15:26:13.763Z,8.63
2018-04-19T15:28:41.617Z,5.40
2018-04-19T15:31:09.537Z,7.03
2018-04-19T15:33:37.381Z,5.20
2018-04-19T15:36:05.240Z,5.30
2018-04-19T15:38:33.157Z,7.10
2018-04-19T15:41:01.002Z,5.60
2018-04-19T15:43:28.862Z,6.23
2018-04-19T15:45:56.776Z,4.93
2018-04-19T15:48:24.637Z,5.10
2018-04-19T15:50:52.509Z,5.67
2018-04-19T15:53:21.333Z,7.33
2018-04-19T15:55:49.211Z,5.07
2018-04-19T15:58:17.055Z,6.33
2018-04-19T16:00:44.939Z,6.40
2018-04-19T16:03:12.887Z,7.53
2018-04-19T16:05:40.737Z,15.27
2018-04-19T16:08:08.626Z,6.77
2018-04-19T16:10:36.496Z,6.60
2018-04-19T16:13:04.341Z,5.73
2018-04-19T16:15:32.210Z,6.60
2018-04-19T16:18:00.086Z,5.40
2018-04-19T16:20:27.970Z,4.83
2018-04-19T16:22:55.814Z,5.13
2018-04-19T16:25:23.722Z,5.10
2018-04-19T16:27:51.634Z,5.63
2018-04-19T16:30:19.542Z,5.50
2018-04-19T16:32:47.405Z,6.40
2018-04-19T16:35:15.342Z,7.13
2018-04-19T16:37:43.192Z,7.53
2018-04-19T16:40:11.066Z,7.03
2018-04-19T16:42:38.919Z,5.40
2018-04-19T16:45:06.773Z,5.20
2018-04-19T16:47:34.646Z,6.97
2018-04-19T16:50:02.506Z,6.50
2018-04-19T16:52:34.015Z,7.90
2018-04-19T16:55:01.967Z,5.30
2018-04-19T16:57:30.820Z,6.27
2018-04-19T16:59:58.766Z,4.53
2018-04-19T17:02:26.653Z,5.07
2018-04-19T17:04:54.534Z,5.60
2018-04-19T17:07:22.426Z,5.50
2018-04-19T17:09:51.369Z,5.80
2018-04-19T17:12:19.250Z,5.10
2018-04-19T17:14:47.096Z,5.53
2018-04-19T17:17:14.981Z,6.27
2018-04-19T17:19:43.658Z,5.90
2018-04-19T17:22:11.494Z,6.03
2018-04-19T17:24:39.414Z,6.53
2018-04-19T17:27:07.329Z,7.40
2018-04-19T17:29:35.284Z,6.30
2018-04-19T17:32:04.195Z,6.63
2018-04-19T17:34:32.769Z,8.00
2018-04-19T17:37:00.626Z,7.40
2018-04-19T17:39:28.810Z,7.50
2018-04-19T17:41:58.199Z,6.47
2018-04-19T17:44:26.510Z,5.47
2018-04-19T17:46:54.597Z,6.60
2018-04-19T17:49:22.828Z,5.50
2018-04-19T17:51:51.140Z,8.87
2018-04-19T17:54:19.111Z,7.80
2018-04-19T17:56:47.005Z,6.13
2018-04-19T17:59:15.194Z,6.47
2018-04-19T18:01:43.190Z,16.53
2018-04-19T18:04:11.443Z,7.77
2018-04-19T18:06:39.514Z,6.50
2018-04-19T18:09:07.765Z,6.37
2018-04-19T18:11:36.015Z,7.10
2018-04-19T18:14:04.270Z,11.90
2018-04-19T18:16:32.208Z,7.13
2018-04-19T18:19:00.544Z,7.13
2018-04-19T18:21:28.778Z,7.27
2018-04-19T18:23:56.661Z,8.50
2018-04-19T18:26:24.999Z,8.03
2018-04-19T18:28:52.988Z,8.10
2018-04-19T18:31:20.864Z,8.40
2018-04-19T18:33:48.850Z,7.20
2018-04-19T18:36:16.835Z,8.10
2018-04-19T18:38:44.690Z,10.30
2018-04-19T18:41:12.764Z,9.07
2018-04-19T18:43:40.631Z,8.20
2018-04-19T18:46:08.511Z,8.17
2018-04-19T18:48:36.786Z,7.77
2018-04-19T18:51:04.711Z,7.43
2018-04-19T18:53:32.557Z,8.93
2018-04-19T18:56:00.875Z,7.90
2018-04-19T18:58:28.796Z,8.23
2018-04-19T19:01:01.471Z,7.67
2018-04-19T19:03:29.654Z,8.50
2018-04-19T19:05:57.671Z,10.07
2018-04-19T19:08:25.846Z,8.83
2018-04-19T19:10:54.340Z,10.13
2018-04-19T19:13:22.770Z,8.40
2018-04-19T19:16:05.893Z,8.63
2018-04-19T19:18:40.062Z,8.43
2018-04-19T19:21:08.408Z,8.50
2018-04-19T19:23:36.275Z,9.10
2018-04-19T19:26:04.245Z,8.60
2018-04-19T19:28:32.525Z,7.30
2018-04-19T19:31:00.466Z,10.80
2018-04-19T19:33:28.531Z,9.43
2018-04-19T19:35:56.496Z,9.57
2018-04-19T19:38:24.401Z,11.70
2018-04-19T19:40:52.675Z,9.90
2018-04-19T19:43:21.097Z,14.40
2018-04-19T19:45:49.002Z,10.10
2018-04-19T19:48:17.005Z,12.27
2018-04-19T19:50:44.944Z,15.77
2018-04-19T19:53:27.781Z,9.00
2018-04-19T19:55:56.226Z,16.53
2018-04-19T19:58:24.225Z,12.10
2018-04-19T20:00:52.458Z,10.53
2018-04-19T20:03:20.807Z,15.27
2018-04-19T20:05:48.958Z,13.00
2018-04-19T20:08:17.110Z,8.10
2018-04-19T20:10:45.354Z,15.77
2018-04-19T20:13:13.534Z,14.23
2018-04-19T20:15:41.467Z,15.20
2018-04-19T20:18:09.337Z,12.70
2018-04-19T20:20:37.476Z,10.80
2018-04-19T20:23:05.389Z,19.63
2018-04-19T20:25:33.252Z,20.10
2018-04-19T20:28:01.154Z,16.13
2018-04-19T20:30:29.364Z,10.40
2018-04-19T20:32:57.391Z,8.80
2018-04-19T20:35:26.033Z,8.23
2018-04-19T20:37:54.491Z,11.67
2018-04-19T20:40:23.003Z,9.63
2018-04-19T20:42:51.413Z,9.77
2018-04-19T20:45:19.346Z,8.43
2018-04-19T20:47:47.418Z,8.00
2018-04-19T20:50:15.258Z,12.10
2018-04-19T20:52:43.266Z,15.77
2018-04-19T20:55:11.116Z,10.00
2018-04-19T20:57:39.068Z,7.57
2018-04-19T21:00:06.939Z,9.40
2018-04-19T21:02:34.777Z,7.33
2018-04-19T21:05:02.622Z,11.67
2018-04-19T21:07:30.511Z,19.73
2018-04-19T21:09:58.362Z,10.00
2018-04-19T21:12:26.405Z,8.50
2018-04-19T21:14:54.295Z,8.27
2018-04-19T21:17:22.279Z,7.47
2018-04-19T21:19:50.134Z,6.60
2018-04-19T21:22:18.209Z,7.57
2018-04-19T21:24:46.046Z,8.80
2018-04-19T21:27:14.009Z,9.60
2018-04-19T21:29:41.881Z,7.60
2018-04-19T21:32:10.014Z,7.00
2018-04-19T21:34:37.917Z,7.30
2018-04-19T21:37:05.826Z,7.20
2018-04-19T21:39:33.691Z,7.60
2018-04-19T21:42:01.595Z,8.93
2018-04-19T21:44:29.468Z,8.60
2018-04-19T21:46:57.317Z,8.30
2018-04-19T21:49:25.156Z,7.97
2018-04-19T21:51:53.042Z,8.27
2018-04-19T21:54:20.908Z,8.10
2018-04-19T21:56:48.765Z,9.70
2018-04-19T21:59:16.626Z,7.60
2018-04-19T22:01:44.468Z,8.30
2018-04-19T22:04:12.397Z,9.00
2018-04-19T22:06:40.343Z,7.37
2018-04-19T22:09:08.299Z,8.27
2018-04-19T22:11:36.149Z,9.20
2018-04-19T22:14:04.234Z,9.10
2018-04-19T22:16:32.065Z,8.10
2018-04-19T22:18:59.918Z,9.60
2018-04-19T22:21:27.779Z,7.70
2018-04-19T22:23:55.646Z,8.10
2018-04-19T22:26:23.510Z,10.00
2018-04-19T22:28:51.385Z,9.60
2018-04-19T22:31:19.229Z,9.00
2018-04-19T22:33:47.078Z,9.50
2018-04-19T22:36:14.998Z,9.73
2018-04-19T22:38:42.866Z,9.80
2018-04-19T22:41:10.707Z,11.20
2018-04-19T22:43:38.571Z,9.47
2018-04-19T22:46:06.406Z,10.50
2018-04-19T22:48:34.254Z,11.43
2018-04-19T22:51:02.127Z,10.90
2018-04-19T22:53:30.030Z,10.67
2018-04-19T22:55:57.891Z,11.23
2018-04-19T22:58:25.766Z,14.97
2018-04-19T23:00:53.594Z,12.00
2018-04-19T23:03:21.437Z,19.73
2018-04-19T23:05:49.370Z,14.70
2018-04-19T23:08:17.194Z,11.80
2018-04-19T23:10:45.233Z,10.87
2018-04-19T23:13:13.250Z,11.43
2018-04-19T23:15:41.675Z,11.53
2018-04-19T23:18:09.696Z,11.50
2018-04-19T23:20:37.705Z,11.23
2018-04-19T23:23:05.687Z,13.83
2018-04-19T23:25:33.645Z,11.20
2018-04-19T23:28:01.601Z,12.43
2018-04-19T23:30:29.620Z,12.97
2018-04-19T23:32:57.680Z,12.53
2018-04-19T23:35:25.678Z,12.00
2018-04-19T23:37:53.770Z,12.83
2018-04-19T23:40:21.642Z,12.20
2018-04-19T23:42:49.529Z,13.53
2018-04-19T23:45:17.534Z,12.30
2018-04-19T23:47:45.426Z,11.67
2018-04-19T23:50:13.390Z,13.10
2018-04-19T23:52:41.214Z,11.73
2018-04-19T23:55:09.058Z,11.90
2018-04-19T23:57:36.930Z,12.50
